Time;durP1;ratioP1;P1;durP2;ratioP2;P2;SDS_P1;SDS_P2;PMS_P1;PMS_P2;Temp;Humidity;BMP_temperature;BMP_pressure;BME280_temperature;BME280_humidity;BME280_pressure;Samples;Min_cycle;Max_cycle;Signal;HPM_P1;HPM_P2
2021/12/21 05:00:14;;;;;;;15.43;6.80;;;-4.80;99.90;;;;;;6071376;22;90946;31
2021/12/21 05:02:39;;;;;;;20.83;8.35;;;-4.80;99.90;;;;;;4973506;28;90520;-79
2021/12/21 05:05:06;;;;;;;13.05;7.40;;;-4.90;99.90;;;;;;4960702;28;91676;-78
2021/12/21 05:07:34;;;;;;;21.50;7.57;;;-4.80;99.90;;;;;;4977673;28;93602;-78
2021/12/21 05:10:01;;;;;;;16.75;6.28;;;-4.80;99.90;;;;;;4977180;28;92441;-78
2021/12/21 05:12:27;;;;;;;17.33;7.18;;;-5.00;99.90;;;;;;4960592;28;89301;-78
2021/12/21 05:14:54;;;;;;;13.65;7.28;;;-5.10;99.90;;;;;;4990959;22;90631;-77
2021/12/21 05:17:20;;;;;;;13.63;7.40;;;-5.10;99.90;;;;;;4959917;28;91821;-77
2021/12/21 05:19:46;;;;;;;21.73;7.93;;;-5.00;99.90;;;;;;4962136;28;92129;-77
2021/12/21 05:22:12;;;;;;;17.23;7.65;;;-4.80;99.90;;;;;;4941342;28;89713;-77
2021/12/21 05:24:38;;;;;;;16.48;7.63;;;-4.90;99.90;;;;;;4958763;28;89925;-77
2021/12/21 05:27:04;;;;;;;16.50;7.05;;;-5.00;99.90;;;;;;4941082;28;93334;-77
2021/12/21 05:29:31;;;;;;;17.85;6.78;;;-5.10;99.90;;;;;;4940952;28;91396;-77
2021/12/21 05:31:59;;;;;;;17.55;7.05;;;-5.20;99.90;;;;;;4940477;28;90305;-77
2021/12/21 05:34:25;;;;;;;17.23;7.32;;;-5.10;99.90;;;;;;4958183;28;90230;-77
2021/12/21 05:36:51;;;;;;;17.58;7.53;;;-5.20;99.90;;;;;;4940719;28;92701;-77
2021/12/21 05:39:20;;;;;;;20.27;6.93;;;-5.20;99.90;;;;;;4958539;28;89984;-77
2021/12/21 05:41:50;;;;;;;17.63;6.35;;;-5.30;99.90;;;;;;4940504;28;89328;-78
2021/12/21 05:44:18;;;;;;;14.90;6.55;;;-5.40;99.90;;;;;;4957461;28;89333;-78
2021/12/21 05:46:43;;;;;;;19.30;6.57;;;-5.50;99.90;;;;;;4958334;28;90577;-77
2021/12/21 05:49:09;;;;;;;16.23;6.53;;;-5.50;99.90;;;;;;4940891;28;91332;-77
2021/12/21 05:51:34;;;;;;;13.02;6.50;;;-5.50;99.90;;;;;;4941041;28;89381;-77
2021/12/21 05:54:00;;;;;;;23.33;7.10;;;-5.50;99.90;;;;;;4940439;28;92769;-78
2021/12/21 05:56:25;;;;;;;16.50;7.30;;;-5.50;99.90;;;;;;4940900;28;94073;-78
2021/12/21 05:58:51;;;;;;;17.60;7.35;;;-5.40;99.90;;;;;;4962875;28;89356;-77
2021/12/21 06:01:17;;;;;;;18.38;7.30;;;-5.40;99.90;;;;;;4962155;28;89144;-77
2021/12/21 06:03:43;;;;;;;18.25;7.13;;;-5.40;99.90;;;;;;4961648;28;90189;-77
2021/12/21 06:06:14;;;;;;;15.82;7.40;;;-5.40;99.90;;;;;;4962006;28;89633;-77
2021/12/21 06:08:42;;;;;;;18.52;7.53;;;-5.40;99.90;;;;;;4944175;28;92496;-77
2021/12/21 06:11:08;;;;;;;16.13;7.47;;;-5.40;99.90;;;;;;4944087;28;89417;-77
2021/12/21 06:22:42;;;;;;;13.80;7.18;;;-5.30;99.90;;;;;;4959394;28;89488;-77
2021/12/21 06:27:05;;;;;;;14.15;6.55;;;-5.20;99.90;;;;;;4961202;28;89775;-78
2021/12/21 06:29:31;;;;;;;16.83;7.50;;;-5.20;99.90;;;;;;4961095;28;89235;-78
2021/12/21 06:31:56;;;;;;;17.35;8.00;;;-5.20;99.90;;;;;;4961240;28;89728;-77
2021/12/21 06:34:22;;;;;;;16.00;7.90;;;-5.30;99.90;;;;;;4960228;28;89376;-76
2021/12/21 06:36:48;;;;;;;17.90;7.88;;;-5.30;99.90;;;;;;4957822;28;90127;-77
2021/12/21 06:39:14;;;;;;;16.27;6.70;;;-5.30;99.90;;;;;;4960606;28;91424;-77
2021/12/21 06:41:40;;;;;;;18.48;8.20;;;-5.40;99.90;;;;;;4960303;28;89171;-77
2021/12/21 06:44:09;;;;;;;20.88;9.13;;;-5.30;99.90;;;;;;4965498;28;92803;-77
2021/12/21 06:51:54;;;;;;;22.73;8.70;;;-5.30;99.90;;;;;;4961251;28;89395;-76
2021/12/21 06:54:21;;;;;;;27.50;8.32;;;-5.30;99.90;;;;;;4942327;28;92662;-75
2021/12/21 06:56:46;;;;;;;18.92;8.75;;;-5.30;99.90;;;;;;4959806;28;90670;-77
2021/12/21 06:59:12;;;;;;;20.77;9.05;;;-5.30;99.90;;;;;;4942688;28;92349;-76
2021/12/21 07:01:39;;;;;;;18.02;8.75;;;-5.20;99.90;;;;;;4959754;28;89289;-78
2021/12/21 07:04:06;;;;;;;20.00;8.88;;;-5.30;99.90;;;;;;4956950;28;89093;-75
2021/12/21 07:06:37;;;;;;;20.25;8.50;;;-5.40;99.90;;;;;;4959721;28;91724;-75
2021/12/21 07:09:12;;;;;;;21.08;8.32;;;-5.40;99.90;;;;;;4937026;28;91823;-75
2021/12/21 07:19:36;;;;;;;21.48;8.80;;;-5.60;99.90;;;;;;4959830;28;89444;-77
2021/12/21 07:22:03;;;;;;;18.23;8.15;;;-5.60;99.90;;;;;;4952503;28;89648;-77
2021/12/21 07:24:29;;;;;;;15.52;8.23;;;-5.60;99.90;;;;;;4937707;28;92729;-77
2021/12/21 07:26:54;;;;;;;16.90;7.75;;;-5.60;99.90;;;;;;4960605;28;91306;-79
2021/12/21 07:29:20;;;;;;;17.15;7.97;;;-5.60;99.90;;;;;;4947465;28;88938;-79
2021/12/21 07:31:46;;;;;;;15.75;7.82;;;-5.60;99.90;;;;;;4959712;28;89331;-79
2021/12/21 07:34:12;;;;;;;18.05;7.97;;;-5.50;99.90;;;;;;4944759;28;92422;-79
2021/12/21 07:36:42;;;;;;;18.85;7.93;;;-5.30;99.90;;;;;;4944265;28;92631;-79
2021/12/21 07:39:11;;;;;;;18.42;8.30;;;-5.30;99.90;;;;;;4962669;28;92046;-79
2021/12/21 07:41:36;;;;;;;19.75;8.65;;;-5.40;99.90;;;;;;4963243;28;89348;-80
2021/12/21 07:44:02;;;;;;;15.48;8.88;;;-5.30;99.90;;;;;;4963097;28;89225;-79
2021/12/21 07:46:28;;;;;;;19.70;9.35;;;-5.40;99.90;;;;;;4944884;28;92504;-80
2021/12/21 07:48:54;;;;;;;20.10;9.50;;;-5.40;99.90;;;;;;4963246;28;90179;-79
2021/12/21 07:51:20;;;;;;;19.35;8.93;;;-5.40;99.90;;;;;;4963989;28;89400;-79
2021/12/21 07:53:46;;;;;;;25.15;9.52;;;-5.20;99.90;;;;;;4963244;28;92727;-79
2021/12/21 07:56:11;;;;;;;21.17;10.18;;;-5.20;99.90;;;;;;4945772;28;93215;-80
2021/12/21 07:58:37;;;;;;;21.63;10.07;;;-5.00;99.90;;;;;;4955528;28;90011;-79
2021/12/21 08:01:04;;;;;;;23.67;11.90;;;-5.00;99.90;;;;;;4941744;28;90203;-80
2021/12/21 08:03:33;;;;;;;26.98;11.18;;;-4.90;99.90;;;;;;4944857;28;92791;-80
2021/12/21 08:05:59;;;;;;;24.80;10.82;;;-4.90;99.90;;;;;;4943333;28;92195;-77
2021/12/21 08:08:29;;;;;;;21.83;10.70;;;-4.90;99.90;;;;;;4926198;28;91177;-78
2021/12/21 08:13:39;;;;;;;27.02;11.05;;;-4.70;99.90;;;;;;4948565;28;89678;-77
2021/12/21 08:16:05;;;;;;;23.33;10.60;;;-4.60;99.90;;;;;;4944742;28;90002;-77
2021/12/21 08:18:30;;;;;;;23.48;10.73;;;-4.60;99.90;;;;;;4939645;28;90147;-77
2021/12/21 08:20:56;;;;;;;24.17;9.85;;;-4.50;99.90;;;;;;4937743;28;89354;-77
2021/12/21 08:23:22;;;;;;;21.92;11.23;;;-4.50;99.90;;;;;;4960223;28;89268;-77
2021/12/21 08:25:48;;;;;;;27.42;12.23;;;-4.40;99.90;;;;;;4939929;28;94260;-77
2021/12/21 08:28:14;;;;;;;18.95;11.38;;;-4.30;99.90;;;;;;4953885;28;93935;-77
2021/12/21 08:30:39;;;;;;;24.08;10.85;;;-4.30;99.90;;;;;;4967779;28;88717;-77
2021/12/21 08:33:06;;;;;;;22.30;10.25;;;-4.20;99.90;;;;;;4970736;28;89701;-79
2021/12/21 08:35:32;;;;;;;20.50;10.43;;;-4.10;99.90;;;;;;4956340;28;89943;-79
2021/12/21 08:38:05;;;;;;;21.98;10.75;;;-3.90;99.90;;;;;;4924147;28;91808;-79
2021/12/21 08:40:38;;;;;;;24.20;10.38;;;-3.90;99.90;;;;;;4924141;28;89204;-79
2021/12/21 08:43:10;;;;;;;19.23;10.77;;;-3.80;99.90;;;;;;4957974;28;88771;-79
2021/12/21 08:45:37;;;;;;;18.90;10.18;;;-3.70;99.90;;;;;;4938821;28;91819;-79
2021/12/21 08:48:05;;;;;;;20.95;10.73;;;-3.70;99.90;;;;;;4959474;28;91148;-77
2021/12/21 08:50:31;;;;;;;21.23;11.10;;;-3.70;99.90;;;;;;4952085;28;90186;-79
2021/12/21 08:52:57;;;;;;;24.00;11.23;;;-3.60;99.90;;;;;;4959834;28;89717;-78
2021/12/21 08:55:23;;;;;;;19.15;10.80;;;-3.50;99.90;;;;;;4938820;28;92685;-79
2021/12/21 08:57:49;;;;;;;16.67;10.75;;;-3.40;99.90;;;;;;4964262;28;91017;-82
2021/12/21 09:00:15;;;;;;;27.35;12.00;;;-3.40;99.90;;;;;;4945548;28;89604;-80
2021/12/21 09:02:40;;;;;;;32.08;15.27;;;-3.30;99.90;;;;;;4946619;28;91531;-82
2021/12/21 09:05:11;;;;;;;29.08;15.80;;;-3.20;99.90;;;;;;4943986;28;92742;-79
2021/12/21 09:07:39;;;;;;;29.25;15.85;;;-3.10;99.90;;;;;;4938830;28;92655;-80
2021/12/21 09:10:08;;;;;;;32.13;15.48;;;-3.10;99.90;;;;;;4952056;28;89172;-82
2021/12/21 09:12:34;;;;;;;32.70;16.15;;;-3.00;99.90;;;;;;4943339;28;94331;-79
2021/12/21 09:15:00;;;;;;;27.70;15.43;;;-3.00;99.90;;;;;;4939600;28;94097;-80
2021/12/21 09:17:28;;;;;;;26.33;13.95;;;-2.90;99.90;;;;;;4951253;28;91303;-80
2021/12/21 09:19:54;;;;;;;27.40;15.05;;;-3.00;99.90;;;;;;4945315;28;89205;-82
2021/12/21 09:22:19;;;;;;;33.47;14.80;;;-2.90;99.90;;;;;;4945706;28;92624;-81
2021/12/21 09:24:45;;;;;;;30.23;15.00;;;-2.80;99.90;;;;;;4961848;28;90380;-82
2021/12/21 09:27:11;;;;;;;28.50;13.98;;;-2.80;99.90;;;;;;4924142;28;91728;-81
2021/12/21 09:29:38;;;;;;;24.02;12.38;;;-2.80;99.90;;;;;;4937651;28;89674;-80
2021/12/21 09:32:06;;;;;;;26.42;12.52;;;-2.80;99.90;;;;;;4938034;28;92557;-80
2021/12/21 09:34:31;;;;;;;23.33;13.02;;;-2.70;99.90;;;;;;4958610;28;92978;-78
2021/12/21 09:36:57;;;;;;;27.45;12.95;;;-2.70;99.90;;;;;;4940077;28;92606;-82
2021/12/21 09:39:23;;;;;;;28.33;12.88;;;-2.60;99.90;;;;;;4941187;28;90270;-79
2021/12/21 09:41:48;;;;;;;22.83;12.13;;;-2.60;99.90;;;;;;4942616;28;91623;-81
2021/12/21 09:44:14;;;;;;;24.33;12.85;;;-2.50;99.90;;;;;;4959803;28;90009;-81
2021/12/21 09:46:40;;;;;;;25.08;13.23;;;-2.50;99.90;;;;;;4937133;28;93083;-78
2021/12/21 09:49:05;;;;;;;32.60;13.05;;;-2.40;99.90;;;;;;4958157;28;89306;-82
2021/12/21 09:51:31;;;;;;;26.10;12.45;;;-2.40;99.90;;;;;;4939265;28;92599;-82
2021/12/21 09:53:57;;;;;;;23.77;11.98;;;-2.40;99.90;;;;;;4939657;28;92810;-81
2021/12/21 09:56:23;;;;;;;24.10;12.10;;;-2.40;99.90;;;;;;4941838;28;91189;-83
2021/12/21 09:58:49;;;;;;;23.48;12.15;;;-2.30;99.90;;;;;;4960489;28;89410;-84
2021/12/21 10:01:16;;;;;;;23.55;12.93;;;-2.20;99.90;;;;;;4942755;28;91746;-81
2021/12/21 10:03:42;;;;;;;28.95;12.57;;;-2.10;99.90;;;;;;4940835;28;93991;-82
2021/12/21 10:06:10;;;;;;;23.98;12.70;;;-1.90;99.90;;;;;;4942537;28;93443;-82
2021/12/21 10:08:36;;;;;;;25.17;12.68;;;-1.80;99.90;;;;;;4936444;28;91183;-82
2021/12/21 10:11:04;;;;;;;25.70;12.75;;;-1.80;99.90;;;;;;4931497;28;92765;-80
2021/12/21 10:13:30;;;;;;;20.60;11.45;;;-1.70;99.90;;;;;;4944978;28;90120;-79
2021/12/21 10:15:59;;;;;;;24.95;13.25;;;-1.50;99.90;;;;;;4940197;28;91466;-77
2021/12/21 10:18:42;;;;;;;25.90;12.27;;;-1.50;99.90;;;;;;4940869;28;89670;-79
2021/12/21 10:21:12;;;;;;;24.65;12.73;;;-1.40;99.90;;;;;;4957064;28;89508;-81
2021/12/21 10:23:47;;;;;;;22.40;12.00;;;-1.30;99.90;;;;;;4952998;28;93046;-81
2021/12/21 10:26:25;;;;;;;24.25;12.00;;;-1.20;99.90;;;;;;4935676;28;92798;-81
2021/12/21 10:28:56;;;;;;;21.17;10.95;;;-1.20;99.90;;;;;;4940956;28;90302;-80
2021/12/21 10:31:26;;;;;;;21.17;11.10;;;-1.10;99.90;;;;;;4955942;28;89770;-81
2021/12/21 10:33:54;;;;;;;20.73;10.05;;;-1.00;99.90;;;;;;4930608;28;92811;-81
2021/12/21 10:36:19;;;;;;;16.30;9.68;;;-0.80;99.90;;;;;;4940805;28;92758;-82
2021/12/21 10:38:50;;;;;;;16.38;9.70;;;-0.70;99.90;;;;;;4960476;28;89522;-81
2021/12/21 10:41:20;;;;;;;18.27;10.63;;;-0.70;99.90;;;;;;4943416;28;91501;-81
2021/12/21 10:44:05;;;;;;;19.73;9.32;;;-0.60;99.90;;;;;;4923889;28;93042;-82
2021/12/21 10:46:35;;;;;;;17.75;8.85;;;-0.50;99.90;;;;;;4926990;28;91516;-81
2021/12/21 10:49:12;;;;;;;16.80;8.45;;;-0.40;99.90;;;;;;4943442;28;89240;-81
2021/12/21 10:51:56;;;;;;;17.67;8.40;;;-0.40;99.90;;;;;;4961913;28;91181;-83
2021/12/21 10:54:35;;;;;;;12.88;7.45;;;-0.40;99.90;;;;;;4963509;28;91485;-79
2021/12/21 10:57:04;;;;;;;15.68;7.97;;;-0.30;99.90;;;;;;4958513;28;91006;-78
2021/12/21 10:59:32;;;;;;;14.32;7.50;;;-0.30;99.90;;;;;;4946955;28;89432;-78
2021/12/21 11:02:05;;;;;;;15.82;7.35;;;-0.30;99.90;;;;;;4947433;28;93363;-78
2021/12/21 11:04:39;;;;;;;13.18;7.95;;;-0.20;99.90;;;;;;4926437;28;91622;-76
2021/12/21 11:10:11;;;;;;;13.75;7.22;;;0.00;99.90;;;;;;4948820;28;89362;-77
2021/12/21 11:12:52;;;;;;;13.07;7.50;;;0.10;99.90;;;;;;4942871;28;89100;-76
2021/12/21 11:15:21;;;;;;;11.77;6.93;;;0.30;99.90;;;;;;4965576;22;91799;-72
2021/12/21 11:17:48;;;;;;;13.52;7.05;;;0.40;99.90;;;;;;4960225;28;89199;-72
2021/12/21 11:20:15;;;;;;;12.27;7.00;;;0.40;99.90;;;;;;4960072;28;90367;-72
2021/12/21 11:22:43;;;;;;;12.20;7.13;;;0.50;99.90;;;;;;4959547;28;89919;-72
2021/12/21 11:25:11;;;;;;;13.35;7.20;;;0.60;99.90;;;;;;4925552;28;92437;-74
2021/12/21 11:27:39;;;;;;;14.38;6.82;;;0.70;99.90;;;;;;4921651;28;91943;-73
2021/12/21 11:30:08;;;;;;;12.80;6.68;;;0.80;99.90;;;;;;4939647;28;89540;-73
2021/12/21 11:32:39;;;;;;;12.00;6.40;;;0.80;99.90;;;;;;4939737;28;90307;-73
2021/12/21 11:37:36;;;;;;;14.13;7.10;;;1.10;99.90;;;;;;4940054;28;88916;-72
2021/12/21 11:40:06;;;;;;;12.55;6.57;;;1.20;99.90;;;;;;4923442;28;89522;-76
2021/12/21 11:42:50;;;;;;;10.70;6.38;;;1.20;99.90;;;;;;4922942;28;92017;-73
2021/12/21 11:45:22;;;;;;;11.25;6.60;;;1.20;99.90;;;;;;4939782;28;90512;-74
2021/12/21 11:47:48;;;;;;;18.60;11.95;;;1.40;99.90;;;;;;4922872;28;89955;-75
2021/12/21 11:50:14;;;;;;;20.52;11.70;;;1.40;99.90;;;;;;4939973;28;89314;-74
2021/12/21 11:52:52;;;;;;;25.05;13.88;;;1.40;99.90;;;;;;4939832;28;90755;-74
2021/12/21 11:55:21;;;;;;;15.50;9.18;;;1.50;99.90;;;;;;4920399;28;91972;-73
2021/12/21 11:57:53;;;;;;;24.52;14.50;;;1.60;99.90;;;;;;4940044;28;89573;-77
2021/12/21 12:00:24;;;;;;;16.42;8.88;;;1.70;99.90;;;;;;4921920;28;89369;-74
2021/12/21 12:02:51;;;;;;;15.18;9.65;;;1.70;99.90;;;;;;4940603;28;89279;-74
2021/12/21 12:05:28;;;;;;;28.75;16.55;;;1.70;99.90;;;;;;4939102;28;90077;-73
2021/12/21 12:08:06;;;;;;;13.82;7.13;;;1.80;99.90;;;;;;4939710;28;89754;-75
2021/12/21 12:10:37;;;;;;;10.02;6.05;;;1.90;99.90;;;;;;4940234;28;90148;-73
2021/12/21 12:13:12;;;;;;;10.65;6.53;;;1.90;99.90;;;;;;4940025;28;89652;-71
2021/12/21 12:16:08;;;;;;;24.23;18.13;;;2.00;99.90;;;;;;4939545;28;90475;-73
2021/12/21 12:18:35;;;;;;;12.70;5.85;;;2.10;99.90;;;;;;4918987;28;92193;-73
2021/12/21 12:21:24;;;;;;;8.50;5.30;;;2.10;99.90;;;;;;4922706;28;89406;-73
2021/12/21 12:23:51;;;;;;;7.80;5.28;;;2.20;99.90;;;;;;4939328;28;90502;-73
2021/12/21 12:26:30;;;;;;;8.73;5.82;;;2.20;99.90;;;;;;4921928;28;89427;-73
2021/12/21 12:29:09;;;;;;;10.85;4.97;;;2.30;99.90;;;;;;4939930;28;90240;-73
2021/12/21 12:31:38;;;;;;;9.55;4.97;;;2.30;99.90;;;;;;4940472;28;89205;-73
2021/12/21 12:34:04;;;;;;;10.73;5.50;;;2.30;99.90;;;;;;4939391;28;89177;-73
2021/12/21 12:36:51;;;;;;;8.63;5.50;;;2.40;99.90;;;;;;4938350;28;91020;-73
2021/12/21 12:39:43;;;;;;;8.85;5.28;;;2.40;99.90;;;;;;4939725;28;89972;-73
2021/12/21 12:42:26;;;;;;;8.68;5.53;;;2.40;99.90;;;;;;4939664;28;89249;-73
2021/12/21 12:45:15;;;;;;;10.23;5.35;;;2.40;99.90;;;;;;4939564;28;89969;-73
2021/12/21 12:47:47;;;;;;;9.70;5.20;;;2.40;99.90;;;;;;4940438;28;89541;-79
2021/12/21 12:50:17;;;;;;;7.07;4.70;;;2.40;99.90;;;;;;4923308;28;91652;-73
2021/12/21 12:53:01;;;;;;;7.07;4.60;;;2.50;99.90;;;;;;4922663;28;89312;-73
2021/12/21 12:55:50;;;;;;;9.88;5.07;;;2.50;99.90;;;;;;4923202;28;89046;-73
2021/12/21 12:58:22;;;;;;;8.27;4.60;;;2.50;99.90;;;;;;4940550;28;91788;-74
2021/12/21 13:01:00;;;;;;;8.10;4.95;;;2.50;99.90;;;;;;4941545;28;89664;-73
2021/12/21 13:03:41;;;;;;;8.32;4.82;;;2.50;99.90;;;;;;4914837;28;91528;-74
2021/12/21 13:06:14;;;;;;;8.77;4.60;;;2.40;99.90;;;;;;4909703;28;91874;-73
2021/12/21 13:08:40;;;;;;;9.93;4.82;;;2.40;99.90;;;;;;4905780;28;91145;-73
2021/12/21 13:11:06;;;;;;;10.02;5.40;;;2.40;99.90;;;;;;4930971;28;89401;-73
2021/12/21 13:13:41;;;;;;;8.77;4.90;;;2.40;99.90;;;;;;4906721;28;90517;-73
2021/12/21 13:16:09;;;;;;;6.22;4.75;;;2.40;99.90;;;;;;4921806;28;92023;-73
2021/12/21 13:18:52;;;;;;;6.55;4.97;;;2.40;99.90;;;;;;4940564;28;90453;-73
2021/12/21 13:21:23;;;;;;;9.43;5.07;;;2.40;99.90;;;;;;4930959;28;89861;-73
2021/12/21 13:23:51;;;;;;;9.65;5.30;;;2.30;99.90;;;;;;4919518;28;89673;-75
2021/12/21 13:26:18;;;;;;;7.07;4.53;;;2.40;99.90;;;;;;4929633;28;90668;-75
2021/12/21 13:28:53;;;;;;;8.27;5.18;;;2.30;99.90;;;;;;4919033;28;90685;-75
2021/12/21 13:31:21;;;;;;;9.00;5.88;;;2.40;99.90;;;;;;4925041;28;89430;-75
2021/12/21 13:34:05;;;;;;;9.80;5.57;;;2.40;99.90;;;;;;4931796;28;89243;-75
2021/12/21 13:36:43;;;;;;;6.63;4.40;;;2.30;99.90;;;;;;4936626;28;89579;-75
2021/12/21 13:39:20;;;;;;;8.55;5.43;;;2.30;99.90;;;;;;4917851;28;92162;-75
2021/12/21 13:41:50;;;;;;;7.40;5.57;;;2.30;99.90;;;;;;4932562;28;90149;-76
2021/12/21 13:44:26;;;;;;;9.45;5.60;;;2.20;99.90;;;;;;4911311;28;89663;-76
2021/12/21 13:46:53;;;;;;;9.80;5.88;;;2.20;99.90;;;;;;4915865;28;92763;-77
2021/12/21 13:49:18;;;;;;;9.25;6.47;;;2.20;99.90;;;;;;4922075;28;93364;-76
2021/12/21 13:51:59;;;;;;;10.55;6.28;;;2.20;99.90;;;;;;4939148;28;89377;-76
2021/12/21 13:54:26;;;;;;;9.75;6.03;;;2.20;99.90;;;;;;4939735;28;90352;-76
2021/12/21 13:56:53;;;;;;;11.02;6.97;;;2.10;99.90;;;;;;4902660;28;93079;-76
2021/12/21 13:59:20;;;;;;;11.35;7.78;;;2.10;99.90;;;;;;4920922;28;89240;-76
2021/12/21 14:01:54;;;;;;;9.98;6.60;;;2.10;99.90;;;;;;4936865;28;91520;-76
2021/12/21 14:04:27;;;;;;;10.63;6.93;;;2.00;99.90;;;;;;4939232;28;89329;-76
2021/12/21 14:06:54;;;;;;;11.70;6.47;;;2.00;99.90;;;;;;4921816;28;91822;-76
2021/12/21 14:09:22;;;;;;;11.35;6.88;;;2.00;99.90;;;;;;4940271;28;89296;-76
2021/12/21 14:11:54;;;;;;;12.85;6.93;;;2.00;99.90;;;;;;4939401;28;89125;-76
2021/12/21 14:14:20;;;;;;;10.45;6.97;;;2.00;99.90;;;;;;4921750;28;89872;-75
2021/12/21 14:16:51;;;;;;;15.40;7.55;;;2.00;99.90;;;;;;4939193;28;89358;-79
2021/12/21 14:19:21;;;;;;;11.32;6.68;;;2.00;99.90;;;;;;4924180;28;93017;-80
2021/12/21 14:21:50;;;;;;;11.85;7.20;;;1.90;99.90;;;;;;4925484;28;92634;-76
2021/12/21 14:24:20;;;;;;;13.18;7.38;;;1.90;99.90;;;;;;4942302;28;89486;-76
2021/12/21 14:26:51;;;;;;;12.30;7.07;;;1.90;99.90;;;;;;4925088;28;93080;-76
2021/12/21 14:29:23;;;;;;;10.77;7.22;;;1.90;99.90;;;;;;4909328;28;92776;-76
2021/12/21 14:32:14;;;;;;;11.27;7.00;;;1.80;99.90;;;;;;4923275;28;90134;-76
2021/12/21 14:34:44;;;;;;;11.45;7.95;;;1.70;99.90;;;;;;4937397;28;89432;-76
2021/12/21 14:37:12;;;;;;;12.82;7.28;;;1.60;99.90;;;;;;4942745;28;89707;-75
2021/12/21 14:39:38;;;;;;;13.25;7.40;;;1.60;99.90;;;;;;4925728;28;94265;-76
2021/12/21 14:42:11;;;;;;;12.07;7.32;;;1.40;99.90;;;;;;4941685;28;89277;-76
2021/12/21 14:44:45;;;;;;;13.57;8.05;;;1.40;99.90;;;;;;4922235;28;90618;-76
2021/12/21 14:47:16;;;;;;;13.75;7.93;;;1.30;99.90;;;;;;4941750;28;89697;-79
2021/12/21 14:49:49;;;;;;;13.70;7.57;;;1.20;99.90;;;;;;4924312;28;92034;-75
2021/12/21 14:52:27;;;;;;;13.95;7.85;;;1.10;99.90;;;;;;4942213;28;89311;-79
2021/12/21 14:55:14;;;;;;;12.10;7.97;;;1.00;99.90;;;;;;4941925;28;89147;-75
2021/12/21 14:58:00;;;;;;;11.23;7.70;;;0.80;99.90;;;;;;4940864;28;90785;-76
2021/12/21 15:00:29;;;;;;;12.65;7.63;;;0.70;99.90;;;;;;4924512;28;93212;-79
2021/12/21 15:02:57;;;;;;;13.38;7.20;;;0.60;99.90;;;;;;4942422;28;91817;-77
2021/12/21 15:05:32;;;;;;;14.88;7.97;;;0.40;99.90;;;;;;4942088;28;89289;-76
2021/12/21 15:07:59;;;;;;;14.65;9.75;;;0.30;99.90;;;;;;4924989;28;92833;-77
2021/12/21 15:10:28;;;;;;;15.73;9.00;;;0.20;99.90;;;;;;4941558;28;90124;-75
2021/12/21 15:12:54;;;;;;;13.80;8.48;;;0.10;99.90;;;;;;4941054;28;89391;-76
2021/12/21 15:15:21;;;;;;;15.27;7.95;;;0.00;99.90;;;;;;4923000;28;89369;-75
2021/12/21 15:17:48;;;;;;;17.17;13.38;;;-0.20;99.90;;;;;;4941214;28;88974;-75
2021/12/21 15:20:15;;;;;;;15.98;11.70;;;-0.20;99.90;;;;;;4940620;28;89262;-75
2021/12/21 15:22:41;;;;;;;19.52;12.02;;;-0.30;99.90;;;;;;4940435;28;90248;-76
2021/12/21 15:25:10;;;;;;;20.70;13.05;;;-0.30;99.90;;;;;;4940486;28;89314;-76
2021/12/21 15:27:37;;;;;;;14.40;9.75;;;-0.20;99.90;;;;;;4920230;28;94578;-76
2021/12/21 15:30:08;;;;;;;15.90;9.95;;;-0.20;99.90;;;;;;4944993;28;91012;-75
2021/12/21 15:32:33;;;;;;;17.92;10.85;;;-0.20;99.90;;;;;;4921329;28;91294;-75
2021/12/21 15:35:01;;;;;;;15.38;9.38;;;-0.20;99.90;;;;;;4918894;28;90338;-75
2021/12/21 15:37:28;;;;;;;17.33;9.07;;;-0.30;99.90;;;;;;4939269;28;89884;-75
2021/12/21 15:39:54;;;;;;;15.88;8.98;;;-0.40;99.90;;;;;;4940825;28;90226;-75
2021/12/21 15:42:20;;;;;;;13.88;8.52;;;-0.50;99.90;;;;;;4940511;28;89878;-75
2021/12/21 15:44:54;;;;;;;17.35;10.68;;;-0.60;99.90;;;;;;4940677;28;89296;-75
2021/12/21 15:47:19;;;;;;;15.65;9.95;;;-0.50;99.90;;;;;;4939707;28;89446;-75
2021/12/21 15:49:47;;;;;;;22.25;9.70;;;-0.40;99.90;;;;;;4940126;28;90287;-75
2021/12/21 15:52:13;;;;;;;16.63;10.63;;;-0.50;99.90;;;;;;4940187;28;90234;-75
2021/12/21 15:54:40;;;;;;;17.23;10.88;;;-0.60;99.90;;;;;;4922025;28;89368;-75
2021/12/21 15:57:07;;;;;;;22.67;11.55;;;-0.50;99.90;;;;;;4939874;28;89782;-75
2021/12/21 15:59:33;;;;;;;17.92;10.35;;;-0.50;99.90;;;;;;4939407;28;91672;-75
2021/12/21 16:01:59;;;;;;;17.35;10.10;;;-0.60;99.90;;;;;;4939195;28;91845;-76
2021/12/21 16:04:24;;;;;;;17.55;9.90;;;-0.80;99.90;;;;;;4921625;28;89452;-76
2021/12/21 16:06:51;;;;;;;17.80;11.70;;;-1.00;99.90;;;;;;4922699;28;92221;-76
2021/12/21 16:09:17;;;;;;;17.40;10.68;;;-1.00;99.90;;;;;;4940381;28;89275;-76
2021/12/21 16:11:44;;;;;;;18.75;10.88;;;-1.10;99.90;;;;;;4939368;28;90181;-76
2021/12/21 16:14:09;;;;;;;20.25;11.43;;;-1.10;99.90;;;;;;4938604;28;89430;-73
2021/12/21 16:16:36;;;;;;;17.58;10.32;;;-1.10;99.90;;;;;;4921659;28;91841;-73
2021/12/21 16:19:04;;;;;;;19.30;10.88;;;-1.20;99.90;;;;;;4921921;28;89498;-74
2021/12/21 16:21:30;;;;;;;18.58;10.60;;;-1.30;99.90;;;;;;4939047;28;89272;-73
2021/12/21 16:23:56;;;;;;;16.73;10.50;;;-1.40;99.90;;;;;;4938788;28;90231;-73
2021/12/21 16:26:21;;;;;;;18.25;10.15;;;-1.50;99.90;;;;;;4939339;28;89339;-73
2021/12/21 16:28:47;;;;;;;18.95;10.32;;;-1.70;99.90;;;;;;4939426;28;90062;-75
2021/12/21 16:31:18;;;;;;;17.42;10.45;;;-1.80;99.90;;;;;;4939315;28;89662;-73
2021/12/21 16:33:45;;;;;;;16.95;9.77;;;-1.90;99.90;;;;;;4939636;28;89396;-73
2021/12/21 16:36:11;;;;;;;18.50;10.13;;;-2.00;99.90;;;;;;4939807;28;91435;-75
2021/12/21 16:38:36;;;;;;;17.13;10.02;;;-2.10;99.90;;;;;;4920562;28;91131;-73
2021/12/21 16:41:03;;;;;;;17.67;11.18;;;-2.20;99.90;;;;;;4938795;28;88838;-73
2021/12/21 16:43:32;;;;;;;22.00;11.27;;;-2.30;99.90;;;;;;4939109;28;89430;-73
2021/12/21 16:45:59;;;;;;;19.55;10.90;;;-2.40;99.90;;;;;;4938920;28;89180;-73
2021/12/21 16:48:27;;;;;;;20.13;11.00;;;-2.40;99.90;;;;;;4938712;28;90672;-72
2021/12/21 16:50:53;;;;;;;22.38;12.35;;;-2.40;99.90;;;;;;4938867;28;92610;-72
2021/12/21 16:53:19;;;;;;;18.90;11.63;;;-2.40;99.90;;;;;;4938650;28;89276;-74
2021/12/21 16:55:45;;;;;;;22.40;12.57;;;-2.40;99.90;;;;;;4938322;28;91089;-74
2021/12/21 16:58:11;;;;;;;24.73;13.73;;;-2.40;99.90;;;;;;4913189;28;93325;-74
2021/12/21 17:00:37;;;;;;;27.13;16.23;;;-2.50;99.90;;;;;;4920091;28;91864;-74
2021/12/21 17:03:03;;;;;;;32.28;18.77;;;-2.50;99.90;;;;;;4937379;28;89217;-74
2021/12/21 17:05:28;;;;;;;31.05;17.42;;;-2.50;99.90;;;;;;4936913;28;89434;-74
2021/12/21 17:07:55;;;;;;;29.33;17.67;;;-2.50;99.90;;;;;;4937379;28;90072;-74
2021/12/21 17:10:23;;;;;;;29.80;15.95;;;-2.60;99.90;;;;;;4937696;28;89555;-74
2021/12/21 17:12:49;;;;;;;27.85;15.30;;;-2.50;99.90;;;;;;4936836;28;90366;-74
2021/12/21 17:15:16;;;;;;;28.35;15.18;;;-2.60;99.90;;;;;;4967905;22;90363;-79
2021/12/21 17:17:43;;;;;;;23.27;14.27;;;-2.60;99.90;;;;;;4942976;28;91693;-80
2021/12/21 17:20:10;;;;;;;24.75;15.35;;;-2.70;99.90;;;;;;4943218;28;91546;-79
2021/12/21 17:22:36;;;;;;;25.70;15.35;;;-2.70;99.90;;;;;;4944113;28;89482;-80
2021/12/21 17:25:03;;;;;;;29.70;15.85;;;-2.70;99.90;;;;;;4918494;28;91913;-80
2021/12/21 17:27:29;;;;;;;35.08;18.00;;;-2.80;99.90;;;;;;4921706;28;92446;-80
2021/12/21 17:29:54;;;;;;;31.15;16.50;;;-2.80;99.90;;;;;;4910655;28;91741;-80
2021/12/21 17:32:20;;;;;;;34.10;17.65;;;-2.90;99.90;;;;;;4923825;28;89340;-80
2021/12/21 17:34:47;;;;;;;28.88;17.23;;;-2.90;99.90;;;;;;4922516;28;92903;-80
2021/12/21 17:37:14;;;;;;;33.28;18.02;;;-2.90;99.90;;;;;;4923671;28;92336;-80
2021/12/21 17:39:40;;;;;;;30.73;18.30;;;-3.00;99.90;;;;;;4910639;28;93712;-80
2021/12/21 17:42:07;;;;;;;33.72;17.05;;;-3.00;99.90;;;;;;4939977;28;89475;-80
2021/12/21 17:44:33;;;;;;;30.73;17.13;;;-3.00;99.90;;;;;;4923500;28;89924;-80
2021/12/21 17:46:58;;;;;;;26.10;16.23;;;-3.00;99.90;;;;;;4914522;28;92751;-79
2021/12/21 17:49:24;;;;;;;28.00;15.98;;;-3.10;99.90;;;;;;4907820;28;91894;-80
2021/12/21 17:51:49;;;;;;;28.75;16.60;;;-3.10;99.90;;;;;;4938441;28;89706;-79
2021/12/21 17:54:15;;;;;;;33.33;19.65;;;-3.10;99.90;;;;;;4938722;28;90139;-79
2021/12/21 17:56:40;;;;;;;33.88;19.90;;;-3.20;99.90;;;;;;4922917;28;91581;-79
2021/12/21 17:59:06;;;;;;;36.22;20.83;;;-3.20;99.90;;;;;;4915065;28;92841;-80
2021/12/21 18:01:32;;;;;;;37.97;21.60;;;-3.20;99.90;;;;;;4922668;28;90444;-79
2021/12/21 18:03:57;;;;;;;37.25;22.30;;;-3.20;99.90;;;;;;4939441;28;90145;-80
2021/12/21 18:06:23;;;;;;;39.80;23.40;;;-3.30;99.90;;;;;;4922161;28;93319;-79
2021/12/21 18:08:49;;;;;;;39.15;22.23;;;-3.30;99.90;;;;;;4922032;28;92767;-78
2021/12/21 18:11:16;;;;;;;35.80;21.02;;;-3.30;99.90;;;;;;4914463;28;89551;-81
2021/12/21 18:13:42;;;;;;;35.58;19.65;;;-3.40;99.90;;;;;;4919841;28;92202;-79
2021/12/21 18:16:08;;;;;;;41.55;19.42;;;-3.30;99.90;;;;;;4939732;28;89847;-80